sensor_id;sensor_type;location;lat;lon;timestamp;pressure;altitude;pressure_sealevel;temperature;humidity
67818;BME280;54614;47.576;7.524;2023-04-07T00:01:49;98507.13;;;23.67;31.25
67818;BME280;54614;47.576;7.524;2023-04-07T00:04:15;98509.00;;;23.66;31.10
67818;BME280;54614;47.576;7.524;2023-04-07T00:06:41;98522.63;;;23.65;31.27
67818;BME280;54614;47.576;7.524;2023-04-07T00:09:08;98520.97;;;23.64;30.99
67818;BME280;54614;47.576;7.524;2023-04-07T00:11:36;98520.13;;;23.63;31.17
67818;BME280;54614;47.576;7.524;2023-04-07T00:14:02;98529.66;;;23.66;31.28
67818;BME280;54614;47.576;7.524;2023-04-07T00:16:28;98520.97;;;23.64;31.21
67818;BME280;54614;47.576;7.524;2023-04-07T00:18:54;98524.47;;;23.64;30.95
67818;BME280;54614;47.576;7.524;2023-04-07T00:21:20;98523.44;;;23.65;30.93
67818;BME280;54614;47.576;7.524;2023-04-07T00:23:46;98532.53;;;23.64;31.38
67818;BME280;54614;47.576;7.524;2023-04-07T00:26:13;98523.84;;;23.62;30.99
67818;BME280;54614;47.576;7.524;2023-04-07T00:28:38;98525.94;;;23.60;31.04
67818;BME280;54614;47.576;7.524;2023-04-07T00:31:04;98523.84;;;23.62;31.31
67818;BME280;54614;47.576;7.524;2023-04-07T00:33:30;98521.38;;;23.61;31.07
67818;BME280;54614;47.576;7.524;2023-04-07T00:35:56;98505.28;;;23.61;31.08
67818;BME280;54614;47.576;7.524;2023-04-07T00:38:23;98511.47;;;23.61;31.36
67818;BME280;54614;47.576;7.524;2023-04-07T00:40:49;98505.88;;;23.63;31.11
67818;BME280;54614;47.576;7.524;2023-04-07T00:43:15;98508.16;;;23.59;31.34
67818;BME280;54614;47.576;7.524;2023-04-07T00:45:42;98504.25;;;23.62;31.07
67818;BME280;54614;47.576;7.524;2023-04-07T00:48:09;98503.63;;;23.60;31.25
67818;BME280;54614;47.576;7.524;2023-04-07T00:50:35;98499.69;;;23.62;30.95
67818;BME280;54614;47.576;7.524;2023-04-07T00:53:01;98495.16;;;23.63;31.28
67818;BME280;54614;47.576;7.524;2023-04-07T00:55:27;98487.72;;;23.58;31.24
67818;BME280;54614;47.576;7.524;2023-04-07T00:57:53;98480.28;;;23.60;31.22
67818;BME280;54614;47.576;7.524;2023-04-07T01:00:19;98473.25;;;23.59;31.25
67818;BME280;54614;47.576;7.524;2023-04-07T01:03:00;98471.00;;;23.56;31.17
67818;BME280;54614;47.576;7.524;2023-04-07T01:05:54;98475.94;;;23.59;31.36
67818;BME280;54614;47.576;7.524;2023-04-07T01:08:49;98473.25;;;23.59;31.05
67818;BME280;54614;47.576;7.524;2023-04-07T01:12:04;98467.28;;;23.57;31.27
67818;BME280;54614;47.576;7.524;2023-04-07T01:14:40;98464.59;;;23.57;31.13
67818;BME280;54614;47.576;7.524;2023-04-07T01:17:09;98465.00;;;23.54;31.41
67818;BME280;54614;47.576;7.524;2023-04-07T01:19:42;98457.78;;;23.55;31.32
67818;BME280;54614;47.576;7.524;2023-04-07T01:22:25;98454.66;;;23.58;31.33
67818;BME280;54614;47.576;7.524;2023-04-07T01:25:21;98456.53;;;23.57;31.20
67818;BME280;54614;47.576;7.524;2023-04-07T01:28:13;98458.59;;;23.55;30.96
67818;BME280;54614;47.576;7.524;2023-04-07T01:30:42;98453.22;;;23.55;31.16
67818;BME280;54614;47.576;7.524;2023-04-07T01:33:10;98451.56;;;23.54;31.47
67818;BME280;54614;47.576;7.524;2023-04-07T01:35:39;98440.19;;;23.52;31.29
67818;BME280;54614;47.576;7.524;2023-04-07T01:38:06;98439.97;;;23.54;31.14
67818;BME280;54614;47.576;7.524;2023-04-07T01:40:35;98433.16;;;23.51;31.50
67818;BME280;54614;47.576;7.524;2023-04-07T01:43:03;98424.72;;;23.54;31.21
67818;BME280;54614;47.576;7.524;2023-04-07T01:45:33;98421.59;;;23.51;31.50
67818;BME280;54614;47.576;7.524;2023-04-07T01:48:01;98424.50;;;23.49;31.40
67818;BME280;54614;47.576;7.524;2023-04-07T01:50:29;98419.75;;;23.51;31.24
67818;BME280;54614;47.576;7.524;2023-04-07T01:52:56;98411.06;;;23.49;31.34
67818;BME280;54614;47.576;7.524;2023-04-07T01:55:23;98405.28;;;23.52;31.16
67818;BME280;54614;47.576;7.524;2023-04-07T01:57:49;98399.50;;;23.48;31.28
67818;BME280;54614;47.576;7.524;2023-04-07T02:00:17;98400.34;;;23.49;31.23
67818;BME280;54614;47.576;7.524;2023-04-07T02:02:45;98400.13;;;23.51;31.11
67818;BME280;54614;47.576;7.524;2023-04-07T02:05:18;98387.53;;;23.51;31.52
67818;BME280;54614;47.576;7.524;2023-04-07T02:07:58;98384.84;;;23.51;31.45
67818;BME280;54614;47.576;7.524;2023-04-07T02:10:27;98379.91;;;23.48;31.52
67818;BME280;54614;47.576;7.524;2023-04-07T02:12:56;98363.19;;;23.46;31.32
67818;BME280;54614;47.576;7.524;2023-04-07T02:15:25;98369.38;;;23.46;31.19
67818;BME280;54614;47.576;7.524;2023-04-07T02:17:56;98361.94;;;23.48;31.47
67818;BME280;54614;47.576;7.524;2023-04-07T02:20:23;98374.75;;;23.46;31.53
67818;BME280;54614;47.576;7.524;2023-04-07T02:22:49;98364.00;;;23.46;31.25
67818;BME280;54614;47.576;7.524;2023-04-07T02:25:30;98363.59;;;23.50;31.42
67818;BME280;54614;47.576;7.524;2023-04-07T02:27:59;98362.34;;;23.45;31.47
67818;BME280;54614;47.576;7.524;2023-04-07T02:30:26;98358.63;;;23.46;31.54
67818;BME280;54614;47.576;7.524;2023-04-07T02:32:52;98354.72;;;23.42;31.70
67818;BME280;54614;47.576;7.524;2023-04-07T02:35:18;98359.06;;;23.43;31.62
67818;BME280;54614;47.576;7.524;2023-04-07T02:37:48;98362.34;;;23.45;31.31
67818;BME280;54614;47.576;7.524;2023-04-07T02:40:15;98366.69;;;23.46;31.31
67818;BME280;54614;47.576;7.524;2023-04-07T02:42:41;98365.25;;;23.44;31.55
67818;BME280;54614;47.576;7.524;2023-04-07T02:45:09;98361.09;;;23.48;31.38
67818;BME280;54614;47.576;7.524;2023-04-07T02:47:36;98361.53;;;23.45;31.14
67818;BME280;54614;47.576;7.524;2023-04-07T02:50:02;98368.53;;;23.46;31.45
67818;BME280;54614;47.576;7.524;2023-04-07T02:52:28;98360.91;;;23.43;31.37
67818;BME280;54614;47.576;7.524;2023-04-07T02:54:54;98362.78;;;23.42;31.42
67818;BME280;54614;47.576;7.524;2023-04-07T02:57:20;98361.13;;;23.41;31.12
67818;BME280;54614;47.576;7.524;2023-04-07T02:59:46;98358.44;;;23.41;31.46
67818;BME280;54614;47.576;7.524;2023-04-07T03:02:12;98351.63;;;23.39;31.17
67818;BME280;54614;47.576;7.524;2023-04-07T03:04:38;98348.72;;;23.40;31.49
67818;BME280;54614;47.576;7.524;2023-04-07T03:07:03;98349.97;;;23.38;31.25
67818;BME280;54614;47.576;7.524;2023-04-07T03:09:30;98347.91;;;23.40;31.35
67818;BME280;54614;47.576;7.524;2023-04-07T03:11:56;98342.53;;;23.40;31.62
67818;BME280;54614;47.576;7.524;2023-04-07T03:14:22;98347.91;;;23.40;31.51
67818;BME280;54614;47.576;7.524;2023-04-07T03:16:48;98347.91;;;23.40;31.68
67818;BME280;54614;47.576;7.524;2023-04-07T03:19:14;98343.78;;;23.37;31.77
67818;BME280;54614;47.576;7.524;2023-04-07T03:21:41;98338.44;;;23.31;31.70
67818;BME280;54614;47.576;7.524;2023-04-07T03:24:07;98326.25;;;23.35;31.75
67818;BME280;54614;47.576;7.524;2023-04-07T03:26:33;98329.56;;;23.30;31.78
67818;BME280;54614;47.576;7.524;2023-04-07T03:28:59;98324.41;;;23.29;31.72
67818;BME280;54614;47.576;7.524;2023-04-07T03:31:25;98321.50;;;23.30;31.82
67818;BME280;54614;47.576;7.524;2023-04-07T03:33:51;98310.78;;;23.30;31.80
67818;BME280;54614;47.576;7.524;2023-04-07T03:36:17;98312.00;;;23.28;31.72
67818;BME280;54614;47.576;7.524;2023-04-07T03:38:45;98316.56;;;23.27;31.66
67818;BME280;54614;47.576;7.524;2023-04-07T03:41:12;98313.44;;;23.30;31.52
67818;BME280;54614;47.576;7.524;2023-04-07T03:43:37;98312.63;;;23.30;31.79
67818;BME280;54614;47.576;7.524;2023-04-07T03:46:03;98314.69;;;23.28;31.89
67818;BME280;54614;47.576;7.524;2023-04-07T03:48:29;98316.75;;;23.26;31.80
67818;BME280;54614;47.576;7.524;2023-04-07T03:50:55;98317.59;;;23.26;31.75
67818;BME280;54614;47.576;7.524;2023-04-07T03:53:22;98305.41;;;23.24;31.83
67818;BME280;54614;47.576;7.524;2023-04-07T03:55:47;98305.84;;;23.21;31.81
67818;BME280;54614;47.576;7.524;2023-04-07T03:58:13;98305.41;;;23.24;31.65
67818;BME280;54614;47.576;7.524;2023-04-07T04:00:40;98303.97;;;23.21;31.85
67818;BME280;54614;47.576;7.524;2023-04-07T04:03:06;98294.50;;;23.19;31.72
67818;BME280;54614;47.576;7.524;2023-04-07T04:05:31;98288.50;;;23.17;31.67
67818;BME280;54614;47.576;7.524;2023-04-07T04:07:57;98289.94;;;23.12;31.96
67818;BME280;54614;47.576;7.524;2023-04-07T04:10:23;98290.38;;;23.16;31.71
67818;BME280;54614;47.576;7.524;2023-04-07T04:12:49;98287.47;;;23.24;31.86
67818;BME280;54614;47.576;7.524;2023-04-07T04:15:15;98287.66;;;23.29;31.80
67818;BME280;54614;47.576;7.524;2023-04-07T04:17:41;98286.00;;;23.28;31.88
67818;BME280;54614;47.576;7.524;2023-04-07T04:20:08;98288.47;;;23.30;31.68
67818;BME280;54614;47.576;7.524;2023-04-07T04:22:34;98289.69;;;23.34;31.69
67818;BME280;54614;47.576;7.524;2023-04-07T04:25:00;98288.25;;;23.31;31.73
67818;BME280;54614;47.576;7.524;2023-04-07T04:27:27;98287.22;;;23.32;31.64
67818;BME280;54614;47.576;7.524;2023-04-07T04:29:53;98293.22;;;23.34;31.82
67818;BME280;54614;47.576;7.524;2023-04-07T04:32:19;98293.22;;;23.34;31.71
67818;BME280;54614;47.576;7.524;2023-04-07T04:34:45;98300.44;;;23.34;31.95
67818;BME280;54614;47.576;7.524;2023-04-07T04:37:17;98304.56;;;23.36;31.70
67818;BME280;54614;47.576;7.524;2023-04-07T04:39:43;98309.72;;;23.38;31.65
67818;BME280;54614;47.576;7.524;2023-04-07T04:42:09;98307.84;;;23.38;31.83
67818;BME280;54614;47.576;7.524;2023-04-07T04:44:35;98308.91;;;23.37;31.45
67818;BME280;54614;47.576;7.524;2023-04-07T04:47:01;98325.41;;;23.34;32.02
67818;BME280;54614;47.576;7.524;2023-04-07T04:49:27;98319.41;;;23.39;31.84
67818;BME280;54614;47.576;7.524;2023-04-07T04:51:53;98328.50;;;23.38;31.74
67818;BME280;54614;47.576;7.524;2023-04-07T04:54:19;98332.22;;;23.37;31.70
67818;BME280;54614;47.576;7.524;2023-04-07T04:56:45;98326.44;;;23.33;31.59
67818;BME280;54614;47.576;7.524;2023-04-07T04:59:10;98325.59;;;23.39;31.66
67818;BME280;54614;47.576;7.524;2023-04-07T05:01:36;98319.84;;;23.36;31.64
67818;BME280;54614;47.576;7.524;2023-04-07T05:04:02;98315.69;;;23.40;31.69
67818;BME280;54614;47.576;7.524;2023-04-07T05:06:28;98324.16;;;23.37;31.88
67818;BME280;54614;47.576;7.524;2023-04-07T05:08:53;98320.44;;;23.38;31.70
67818;BME280;54614;47.576;7.524;2023-04-07T05:11:20;98322.53;;;23.36;31.77
67818;BME280;54614;47.576;7.524;2023-04-07T05:13:46;98319.84;;;23.36;31.73
67818;BME280;54614;47.576;7.524;2023-04-07T05:16:12;98316.97;;;23.31;31.81
67818;BME280;54614;47.576;7.524;2023-04-07T05:18:38;98318.81;;;23.37;31.76
67818;BME280;54614;47.576;7.524;2023-04-07T05:21:04;98314.88;;;23.39;31.70
67818;BME280;54614;47.576;7.524;2023-04-07T05:23:30;98325.00;;;23.37;31.77
67818;BME280;54614;47.576;7.524;2023-04-07T05:25:56;98320.88;;;23.35;31.36
67818;BME280;54614;47.576;7.524;2023-04-07T05:28:21;98318.41;;;23.33;31.60
67818;BME280;54614;47.576;7.524;2023-04-07T05:30:47;98323.16;;;23.31;31.67
67818;BME280;54614;47.576;7.524;2023-04-07T05:33:13;98327.28;;;23.34;31.63
67818;BME280;54614;47.576;7.524;2023-04-07T05:35:39;98329.75;;;23.35;31.58
67818;BME280;54614;47.576;7.524;2023-04-07T05:38:05;98329.34;;;23.38;31.42
67818;BME280;54614;47.576;7.524;2023-04-07T05:40:31;98329.72;;;23.42;31.35
67818;BME280;54614;47.576;7.524;2023-04-07T05:42:56;98329.50;;;23.50;31.43
67818;BME280;54614;47.576;7.524;2023-04-07T05:45:22;98335.50;;;23.52;31.98
67818;BME280;54614;47.576;7.524;2023-04-07T05:47:48;98333.44;;;23.54;31.65
67818;BME280;54614;47.576;7.524;2023-04-07T05:50:16;98333.84;;;23.58;31.33
67818;BME280;54614;47.576;7.524;2023-04-07T05:52:42;98334.66;;;23.65;31.60
67818;BME280;54614;47.576;7.524;2023-04-07T05:55:08;98333.41;;;23.67;31.45
67818;BME280;54614;47.576;7.524;2023-04-07T05:57:35;98335.28;;;23.67;31.73
67818;BME280;54614;47.576;7.524;2023-04-07T06:00:01;98336.91;;;23.74;31.89
67818;BME280;54614;47.576;7.524;2023-04-07T06:02:27;98335.25;;;23.73;31.69
67818;BME280;54614;47.576;7.524;2023-04-07T06:04:53;98338.75;;;23.74;31.74
67818;BME280;54614;47.576;7.524;2023-04-07T06:07:18;98336.47;;;23.77;31.80
67818;BME280;54614;47.576;7.524;2023-04-07T06:09:44;98334.59;;;23.85;31.78
67818;BME280;54614;47.576;7.524;2023-04-07T06:12:10;98336.25;;;23.86;31.94
67818;BME280;54614;47.576;7.524;2023-04-07T06:14:37;98330.88;;;23.79;31.99
67818;BME280;54614;47.576;7.524;2023-04-07T06:17:03;98338.13;;;23.78;31.90
67818;BME280;54614;47.576;7.524;2023-04-07T06:19:29;98337.91;;;23.80;32.35
67818;BME280;54614;47.576;7.524;2023-04-07T06:21:55;98335.19;;;23.87;32.22
67818;BME280;54614;47.576;7.524;2023-04-07T06:24:21;98336.03;;;23.87;32.23
67818;BME280;54614;47.576;7.524;2023-04-07T06:26:51;98333.31;;;23.94;32.27
67818;BME280;54614;47.576;7.524;2023-04-07T06:29:17;98343.22;;;23.93;31.92
67818;BME280;54614;47.576;7.524;2023-04-07T06:31:43;98338.91;;;23.92;32.17
67818;BME280;54614;47.576;7.524;2023-04-07T06:34:09;98341.19;;;23.89;32.07
67818;BME280;54614;47.576;7.524;2023-04-07T06:36:35;98349.25;;;23.89;32.21
67818;BME280;54614;47.576;7.524;2023-04-07T06:39:00;98351.50;;;23.92;32.20
67818;BME280;54614;47.576;7.524;2023-04-07T06:41:26;98355.19;;;23.97;31.99
67818;BME280;54614;47.576;7.524;2023-04-07T06:43:52;98351.06;;;23.95;32.43
67818;BME280;54614;47.576;7.524;2023-04-07T06:46:18;98359.75;;;23.97;32.20
67818;BME280;54614;47.576;7.524;2023-04-07T06:48:45;98356.41;;;24.01;32.21
67818;BME280;54614;47.576;7.524;2023-04-07T06:51:11;98355.34;;;24.09;32.58
67818;BME280;54614;47.576;7.524;2023-04-07T06:53:37;98355.53;;;24.14;32.43
67818;BME280;54614;47.576;7.524;2023-04-07T06:56:08;98360.06;;;24.20;32.26
67818;BME280;54614;47.576;7.524;2023-04-07T06:58:35;98357.38;;;24.27;32.12
67818;BME280;54614;47.576;7.524;2023-04-07T07:01:03;98367.91;;;24.28;31.92
67818;BME280;54614;47.576;7.524;2023-04-07T07:03:29;98366.44;;;24.26;32.12
67818;BME280;54614;47.576;7.524;2023-04-07T07:05:57;98372.44;;;24.21;32.27
67818;BME280;54614;47.576;7.524;2023-04-07T07:08:24;98368.59;;;24.04;32.40
67818;BME280;54614;47.576;7.524;2023-04-07T07:10:51;98370.84;;;24.14;32.05
67818;BME280;54614;47.576;7.524;2023-04-07T07:13:19;98377.03;;;24.14;32.18
67818;BME280;54614;47.576;7.524;2023-04-07T07:15:45;98382.81;;;24.18;31.95
67818;BME280;54614;47.576;7.524;2023-04-07T07:18:11;98380.94;;;24.18;32.31
67818;BME280;54614;47.576;7.524;2023-04-07T07:20:37;98390.03;;;24.17;34.65
67818;BME280;54614;47.576;7.524;2023-04-07T07:23:03;98397.34;;;23.97;33.04
67818;BME280;54614;47.576;7.524;2023-04-07T07:25:29;98396.47;;;24.09;32.33
67818;BME280;54614;47.576;7.524;2023-04-07T07:27:54;98397.50;;;24.15;32.05
67818;BME280;54614;47.576;7.524;2023-04-07T07:30:22;98401.44;;;24.13;31.76
67818;BME280;54614;47.576;7.524;2023-04-07T07:32:49;98408.06;;;24.10;31.97
67818;BME280;54614;47.576;7.524;2023-04-07T07:35:15;98402.88;;;24.15;31.77
67818;BME280;54614;47.576;7.524;2023-04-07T07:37:41;98404.53;;;24.16;31.82
67818;BME280;54614;47.576;7.524;2023-04-07T07:40:09;98404.34;;;24.11;32.32
67818;BME280;54614;47.576;7.524;2023-04-07T07:42:36;98407.63;;;24.13;31.71
67818;BME280;54614;47.576;7.524;2023-04-07T07:45:03;98414.66;;;24.14;31.87
67818;BME280;54614;47.576;7.524;2023-04-07T07:47:30;98414.47;;;24.09;31.81
67818;BME280;54614;47.576;7.524;2023-04-07T07:49:56;98420.69;;;24.03;31.62
67818;BME280;54614;47.576;7.524;2023-04-07T07:52:22;98422.94;;;24.06;31.85
67818;BME280;54614;47.576;7.524;2023-04-07T07:54:50;98431.84;;;24.00;31.87
67818;BME280;54614;47.576;7.524;2023-04-07T07:57:16;98431.63;;;24.08;31.79
67818;BME280;54614;47.576;7.524;2023-04-07T07:59:42;98428.75;;;24.03;37.02
67818;BME280;54614;47.576;7.524;2023-04-07T08:02:09;98436.91;;;23.63;40.59
67818;BME280;54614;47.576;7.524;2023-04-07T08:04:36;98437.94;;;23.56;39.90
67818;BME280;54614;47.576;7.524;2023-04-07T08:07:03;98440.22;;;23.59;39.88
67818;BME280;54614;47.576;7.524;2023-04-07T08:09:29;98449.06;;;23.53;39.04
67818;BME280;54614;47.576;7.524;2023-04-07T08:11:57;98453.63;;;23.52;38.81
67818;BME280;54614;47.576;7.524;2023-04-07T08:14:23;98453.00;;;23.50;38.10
67818;BME280;54614;47.576;7.524;2023-04-07T08:16:49;98460.44;;;23.48;38.02
67818;BME280;54614;47.576;7.524;2023-04-07T08:19:15;98468.47;;;23.48;37.70
67818;BME280;54614;47.576;7.524;2023-04-07T08:21:41;98464.38;;;23.59;36.96
67818;BME280;54614;47.576;7.524;2023-04-07T08:24:08;98461.63;;;23.98;34.58
67818;BME280;54614;47.576;7.524;2023-04-07T08:26:34;98462.00;;;24.15;33.57
67818;BME280;54614;47.576;7.524;2023-04-07T08:29:00;98462.19;;;24.20;33.40
67818;BME280;54614;47.576;7.524;2023-04-07T08:31:26;98471.09;;;24.14;33.62
67818;BME280;54614;47.576;7.524;2023-04-07T08:33:52;98463.44;;;24.18;33.25
67818;BME280;54614;47.576;7.524;2023-04-07T08:36:26;98470.44;;;24.19;32.98
67818;BME280;54614;47.576;7.524;2023-04-07T08:38:53;98479.75;;;24.23;32.81
67818;BME280;54614;47.576;7.524;2023-04-07T08:41:39;98478.31;;;24.20;32.69
67818;BME280;54614;47.576;7.524;2023-04-07T08:44:09;98472.75;;;24.15;32.56
67818;BME280;54614;47.576;7.524;2023-04-07T08:46:38;98481.41;;;24.17;32.66
67818;BME280;54614;47.576;7.524;2023-04-07T08:49:09;98487.41;;;24.19;32.40
67818;BME280;54614;47.576;7.524;2023-04-07T08:51:37;98482.25;;;24.18;32.34
67818;BME280;54614;47.576;7.524;2023-04-07T08:54:14;98487.44;;;24.06;32.37
67818;BME280;54614;47.576;7.524;2023-04-07T08:56:42;98494.44;;;24.14;32.57
67818;BME280;54614;47.576;7.524;2023-04-07T08:59:11;98500.84;;;24.13;32.09
67818;BME280;54614;47.576;7.524;2023-04-07T09:01:39;98503.53;;;24.13;31.95
67818;BME280;54614;47.576;7.524;2023-04-07T09:04:07;98502.50;;;24.14;31.94
67818;BME280;54614;47.576;7.524;2023-04-07T09:06:35;98504.78;;;24.17;32.03
67818;BME280;54614;47.576;7.524;2023-04-07T09:09:02;98502.72;;;24.12;32.27
67818;BME280;54614;47.576;7.524;2023-04-07T09:11:37;98514.09;;;24.14;31.96
67818;BME280;54614;47.576;7.524;2023-04-07T09:14:03;98512.84;;;24.10;32.22
67818;BME280;54614;47.576;7.524;2023-04-07T09:16:29;98513.69;;;24.10;32.26
67818;BME280;54614;47.576;7.524;2023-04-07T09:18:58;98518.22;;;24.10;31.99
67818;BME280;54614;47.576;7.524;2023-04-07T09:21:24;98519.88;;;24.04;32.13
67818;BME280;54614;47.576;7.524;2023-04-07T09:23:51;98514.72;;;24.09;31.92
67818;BME280;54614;47.576;7.524;2023-04-07T09:28:46;98511.84;;;24.04;32.03
67818;BME280;54614;47.576;7.524;2023-04-07T09:31:12;98514.94;;;23.95;32.03
67818;BME280;54614;47.576;7.524;2023-04-07T09:33:38;98514.72;;;24.03;31.86
67818;BME280;54614;47.576;7.524;2023-04-07T09:36:06;98520.09;;;24.03;32.35
67818;BME280;54614;47.576;7.524;2023-04-07T09:38:36;98515.16;;;24.00;32.95
67818;BME280;54614;47.576;7.524;2023-04-07T09:43:44;98527.56;;;23.81;33.76
67818;BME280;54614;47.576;7.524;2023-04-07T09:48:38;98530.69;;;23.58;34.52
67818;BME280;54614;47.576;7.524;2023-04-07T09:51:07;98532.91;;;23.48;34.31
67818;BME280;54614;47.576;7.524;2023-04-07T09:53:50;98540.81;;;23.63;34.17
67818;BME280;54614;47.576;7.524;2023-04-07T09:56:19;98533.38;;;23.71;33.56
67818;BME280;54614;47.576;7.524;2023-04-07T09:58:50;98530.44;;;23.46;34.15
67818;BME280;54614;47.576;7.524;2023-04-07T10:01:20;98533.97;;;23.67;33.72
67818;BME280;54614;47.576;7.524;2023-04-07T10:03:47;98535.22;;;23.71;33.83
67818;BME280;54614;47.576;7.524;2023-04-07T10:06:16;98535.00;;;23.99;33.58
67818;BME280;54614;47.576;7.524;2023-04-07T10:08:42;98538.09;;;24.02;33.63
67818;BME280;54614;47.576;7.524;2023-04-07T10:11:09;98528.41;;;23.82;33.75
67818;BME280;54614;47.576;7.524;2023-04-07T10:13:39;98531.50;;;23.59;34.11
67818;BME280;54614;47.576;7.524;2023-04-07T10:16:07;98530.47;;;23.60;33.88
67818;BME280;54614;47.576;7.524;2023-04-07T10:18:35;98531.50;;;23.72;33.66
67818;BME280;54614;47.576;7.524;2023-04-07T10:21:04;98529.22;;;23.56;34.06
67818;BME280;54614;47.576;7.524;2023-04-07T10:26:17;98533.13;;;23.93;33.11
67818;BME280;54614;47.576;7.524;2023-04-07T10:28:50;98530.22;;;24.01;32.51
67818;BME280;54614;47.576;7.524;2023-04-07T10:31:20;98531.28;;;24.00;32.64
67818;BME280;54614;47.576;7.524;2023-04-07T10:33:52;98530.22;;;24.01;32.69
67818;BME280;54614;47.576;7.524;2023-04-07T10:36:20;98538.91;;;24.03;32.50
67818;BME280;54614;47.576;7.524;2023-04-07T10:41:36;98537.69;;;23.99;32.95
67818;BME280;54614;47.576;7.524;2023-04-07T10:44:07;98537.88;;;24.04;32.60
67818;BME280;54614;47.576;7.524;2023-04-07T10:49:14;98541.38;;;24.18;32.33
67818;BME280;54614;47.576;7.524;2023-04-07T10:51:41;98541.56;;;24.29;32.56
67818;BME280;54614;47.576;7.524;2023-04-07T10:54:20;98533.94;;;24.26;32.31
67818;BME280;54614;47.576;7.524;2023-04-07T11:04:49;98541.78;;;24.28;33.70
67818;BME280;54614;47.576;7.524;2023-04-07T11:07:15;98536.81;;;24.31;33.89
67818;BME280;54614;47.576;7.524;2023-04-07T11:09:41;98537.84;;;24.30;33.46
67818;BME280;54614;47.576;7.524;2023-04-07T11:12:07;98540.53;;;24.30;33.35
67818;BME280;54614;47.576;7.524;2023-04-07T11:14:34;98539.69;;;24.36;33.44
67818;BME280;54614;47.576;7.524;2023-04-07T11:17:02;98535.94;;;24.44;33.36
67818;BME280;54614;47.576;7.524;2023-04-07T11:19:29;98534.50;;;24.41;33.24
67818;BME280;54614;47.576;7.524;2023-04-07T11:22:16;98538.41;;;24.52;33.43
67818;BME280;54614;47.576;7.524;2023-04-07T11:24:41;98543.53;;;24.67;32.97
67818;BME280;54614;47.576;7.524;2023-04-07T11:27:15;98535.88;;;24.64;33.56
67818;BME280;54614;47.576;7.524;2023-04-07T11:29:41;98538.56;;;24.64;33.28
67818;BME280;54614;47.576;7.524;2023-04-07T11:32:08;98539.78;;;24.68;33.63
67818;BME280;54614;47.576;7.524;2023-04-07T11:34:35;98542.88;;;24.71;33.29
67818;BME280;54614;47.576;7.524;2023-04-07T11:37:25;98540.38;;;24.77;33.63
67818;BME280;54614;47.576;7.524;2023-04-07T11:39:56;98550.66;;;24.22;35.83
67818;BME280;54614;47.576;7.524;2023-04-07T11:42:39;98555.75;;;24.63;33.93
67818;BME280;54614;47.576;7.524;2023-04-07T11:45:16;98552.19;;;24.69;33.95
67818;BME280;54614;47.576;7.524;2023-04-07T11:47:42;98555.28;;;24.72;33.93
67818;BME280;54614;47.576;7.524;2023-04-07T11:50:09;98562.06;;;24.82;33.79
67818;BME280;54614;47.576;7.524;2023-04-07T11:52:47;98559.16;;;24.90;33.57
67818;BME280;54614;47.576;7.524;2023-04-07T11:55:22;98561.19;;;24.94;33.44
67818;BME280;54614;47.576;7.524;2023-04-07T11:57:51;98564.50;;;24.96;33.43
67818;BME280;54614;47.576;7.524;2023-04-07T12:00:18;98554.59;;;24.97;33.60
67818;BME280;54614;47.576;7.524;2023-04-07T12:02:45;98558.28;;;25.02;33.42
67818;BME280;54614;47.576;7.524;2023-04-07T12:05:11;98558.66;;;25.13;33.34
67818;BME280;54614;47.576;7.524;2023-04-07T12:07:38;98559.69;;;25.12;33.00
67818;BME280;54614;47.576;7.524;2023-04-07T12:10:22;98557.00;;;25.12;33.11
67818;BME280;54614;47.576;7.524;2023-04-07T12:12:50;98565.69;;;25.14;32.89
67818;BME280;54614;47.576;7.524;2023-04-07T12:15:16;98561.94;;;25.15;32.86
67818;BME280;54614;47.576;7.524;2023-04-07T12:17:47;98565.03;;;25.18;32.80
67818;BME280;54614;47.576;7.524;2023-04-07T12:20:15;98568.06;;;25.28;32.70
67818;BME280;54614;47.576;7.524;2023-04-07T12:22:41;98565.81;;;25.25;32.52
67818;BME280;54614;47.576;7.524;2023-04-07T12:25:07;98563.72;;;25.27;32.79
67818;BME280;54614;47.576;7.524;2023-04-07T12:27:33;98562.25;;;25.31;32.62
67818;BME280;54614;47.576;7.524;2023-04-07T12:29:59;98577.16;;;25.34;32.41
67818;BME280;54614;47.576;7.524;2023-04-07T12:32:25;98569.69;;;25.36;32.34
67818;BME280;54614;47.576;7.524;2023-04-07T12:34:51;98567.78;;;25.43;32.29
67818;BME280;54614;47.576;7.524;2023-04-07T12:37:17;98574.25;;;25.35;32.38
67818;BME280;54614;47.576;7.524;2023-04-07T12:39:43;98568.84;;;25.35;32.34
67818;BME280;54614;47.576;7.524;2023-04-07T12:42:09;98562.00;;;25.39;32.06
67818;BME280;54614;47.576;7.524;2023-04-07T12:44:37;98568.22;;;25.40;32.13
67818;BME280;54614;47.576;7.524;2023-04-07T12:47:03;98570.69;;;25.42;32.56
67818;BME280;54614;47.576;7.524;2023-04-07T12:49:29;98574.97;;;25.49;32.14
67818;BME280;54614;47.576;7.524;2023-04-07T12:51:55;98575.41;;;25.46;32.30
67818;BME280;54614;47.576;7.524;2023-04-07T12:54:22;98572.28;;;25.49;32.14
67818;BME280;54614;47.576;7.524;2023-04-07T12:56:48;98574.16;;;25.49;31.83
67818;BME280;54614;47.576;7.524;2023-04-07T12:59:14;98570.03;;;25.46;31.81
67818;BME280;54614;47.576;7.524;2023-04-07T13:01:40;98567.78;;;25.43;31.72
67818;BME280;54614;47.576;7.524;2023-04-07T13:04:06;98568.38;;;25.45;31.87
67818;BME280;54614;47.576;7.524;2023-04-07T13:06:32;98568.81;;;25.42;31.61
67818;BME280;54614;47.576;7.524;2023-04-07T13:08:58;98575.91;;;25.36;31.71
67818;BME280;54614;47.576;7.524;2023-04-07T13:11:24;98576.94;;;25.35;31.75
67818;BME280;54614;47.576;7.524;2023-04-07T13:13:51;98569.25;;;25.39;31.77
67818;BME280;54614;47.576;7.524;2023-04-07T13:16:17;98578.38;;;25.38;31.72
67818;BME280;54614;47.576;7.524;2023-04-07T13:18:42;98571.94;;;25.39;31.46
67818;BME280;54614;47.576;7.524;2023-04-07T13:21:09;98580.88;;;25.33;31.48
67818;BME280;54614;47.576;7.524;2023-04-07T13:23:35;98582.97;;;25.31;31.48
67818;BME280;54614;47.576;7.524;2023-04-07T13:26:01;98571.38;;;25.30;31.69
67818;BME280;54614;47.576;7.524;2023-04-07T13:28:27;98568.28;;;25.27;31.45